METAR Data
IDs: Format: Raw Decoded Include TAF

Data at: 2113 UTC 24 Mar 2019

KHRX 242055Z AUTO 00000KT 10SM CLR 17/04 A3009 RMK AO2 T01740038
KHRX 242035Z AUTO 00000KT 10SM CLR 17/04 A3009 RMK AO2 T01740042
KHRX 242015Z AUTO 00000KT 10SM CLR 17/03 A3009 RMK AO2 T01660034
KHRX 241955Z AUTO 00000KT 7SM CLR 17/04 A3009 RMK AO2 T01690039
KHRX 241935Z AUTO 00000KT 7SM CLR 16/04 A3010 RMK AO2 T01570036
KHRX 241915Z AUTO 10003KT 7SM CLR 16/05 A3011 RMK AO2 T01630050
KHRX 241855Z AUTO 10003KT 7SM CLR 16/06 A3012 RMK AO2 T01550058
KHRX 241835Z AUTO 11005KT 7SM CLR 16/06 A3012 RMK AO2 T01560061
KHRX 241815Z AUTO 05003KT 7SM CLR 15/06 A3013 RMK AO2 T01470059
KHRX 241755Z AUTO 06003KT 7SM CLR 14/05 A3013 RMK AO2 T01350051 10140 20020
KHRX 241735Z AUTO 06004KT 7SM CLR 13/05 A3013 RMK AO2 T01320052
KHRX 241715Z AUTO 03004KT 7SM CLR 13/06 A3013 RMK AO2 T01270056
KHRX 241655Z AUTO 03003KT 7SM CLR 12/05 A3014 RMK AO2 T01220054
KHRX 241635Z AUTO 06003KT 7SM CLR 12/05 A3013 RMK AO2 T01240054
KHRX 241615Z AUTO 03004KT 7SM CLR 11/05 A3013 RMK AO2 T01130053
KHRX 241555Z AUTO 05006KT 7SM CLR 10/05 A3012 RMK AO2 T01020051
KHRX 241535Z AUTO 04007KT 7SM CLR 10/05 A3013 RMK AO2 T00980050
KHRX 241515Z AUTO 04006KT 7SM CLR 10/05 A3012 RMK AO2 T00960048
KHRX 241455Z AUTO 01006KT 7SM CLR 09/05 A3012 RMK AO2 T00860048
KHRX 241435Z AUTO 01007KT 7SM CLR 07/05 A3011 RMK AO2 T00740045
KHRX 241415Z AUTO 36006KT 7SM CLR 06/04 A3011 RMK AO2 T00620042
KHRX 241355Z AUTO 35003KT 10SM CLR 05/03 A3010 RMK AO2 T00460032
KHRX 241335Z AUTO 35005KT 7SM CLR 03/02 A3009 RMK AO2 T00340024
KHRX 241315Z AUTO 35007KT 7SM CLR 03/02 A3008 RMK AO2 T00260018
KHRX 241255Z AUTO 34004KT 7SM CLR 02/02 A3008 RMK AO2 T00220015
KHRX 241235Z AUTO 34007KT 7SM CLR 02/01 A3008 RMK AO2 T00200011
KHRX 241215Z AUTO 34006KT 7SM CLR 02/01 A3007 RMK AO2 T00210012
KHRX 241155Z AUTO 34006KT 7SM CLR 02/01 A3007 RMK AO2 T00200011 10078 20020
KHRX 241135Z AUTO 34005KT 7SM CLR 02/01 A3007 RMK AO2 T00220012
KHRX 241115Z AUTO 35006KT 7SM CLR 03/02 A3006 RMK AO2 T00270016
KHRX 241055Z AUTO 36006KT 7SM CLR 03/02 A3005 RMK AO2 T00320021
KHRX 241035Z AUTO 36007KT 10SM CLR 04/03 A3005 RMK AO2 T00360025
KHRX 241015Z AUTO 36006KT 7SM CLR 04/02 A3005 RMK AO2 T00360022
KHRX 240955Z AUTO 36007KT 7SM CLR 05/03 A3005 RMK AO2 T00450029
KHRX 240935Z AUTO 00000KT 7SM CLR 05/03 A3005 RMK AO2 T00470030
KHRX 240915Z AUTO 02005KT 7SM CLR 05/03 A3005 RMK AO2 T00510029
KHRX 240855Z AUTO 34004KT 7SM CLR 05/03 A3005 RMK AO2 T00530029
KHRX 240835Z AUTO 35005KT 7SM CLR 06/03 A3004 RMK AO2 T00590028
KHRX 240815Z AUTO 33010KT 7SM CLR 07/03 A3004 RMK AO2 T00660026
KHRX 240755Z AUTO 32011KT 7SM CLR 07/02 A3004 RMK AO2 T00710023
KHRX 240735Z AUTO 30008KT 7SM CLR 07/02 A3002 RMK AO2 T00700023
KHRX 240715Z AUTO 32010KT 10SM CLR 07/03 A3000 RMK AO2 T00720027
KHRX 240655Z AUTO 31010KT 7SM CLR 07/03 A3000 RMK AO2 T00700027
KHRX 240635Z AUTO 28009KT 7SM CLR 07/03 A3000 RMK AO2 T00700025
KHRX 240615Z AUTO 27008KT 7SM CLR 08/03 A3001 RMK AO2 T00780025
KHRX 240555Z AUTO 26008KT 7SM CLR 07/03 A3000 RMK AO2 T00670029 10199 20060 402070020
KHRX 240535Z AUTO 26008KT 10SM CLR 07/03 A3000 RMK AO2 T00650027
KHRX 240515Z AUTO 27006KT 7SM CLR 08/03 A3000 RMK AO2 T00760025
KHRX 240455Z AUTO 26007KT 7SM CLR 09/02 A3000 RMK AO2 T00890023
KHRX 240435Z AUTO 22003KT 10SM CLR 08/03 A3000 RMK AO2 T00810032
KHRX 240415Z AUTO 00000KT 7SM CLR 08/03 A3000 RMK AO2 T00800033
KHRX 240355Z AUTO 27004KT 7SM CLR 10/03 A2999 RMK AO2 T01020033
KHRX 240335Z AUTO 29003KT 10SM CLR 11/03 A2999 RMK AO2 T01060034
KHRX 240315Z AUTO 31005KT 7SM CLR 11/03 A2998 RMK AO2 T01100031
KHRX 240255Z AUTO 32006KT 10SM CLR 11/04 A2997 RMK AO2 T01110037
KHRX 240235Z AUTO 33006KT 10SM CLR 10/05 A2997 RMK AO2 T01020051
KHRX 240210Z AUTO 26006KT 7SM CLR 14/04 A2995 RMK AO2 T01350040
KHRX 240155Z AUTO 25008KT 7SM CLR 13/05 A2995 RMK AO2 T01290046
KHRX 240135Z AUTO 25007KT 10SM CLR 15/05 A2994 RMK AO2 T01490045
KHRX 240115Z AUTO 22004KT 10SM CLR 15/07 A2993 RMK AO2 T01490066
KHRX 240055Z AUTO 27004KT 10SM CLR 17/06 A2992 RMK AO2 T01650062
KHRX 240035Z AUTO 00000KT 7SM CLR 19/04 A2991 RMK AO2 T01910035
KHRX 240015Z AUTO 00000KT 7SM CLR 20/02 A2991 RMK AO2 T01990018
KHRX 232355Z AUTO 17003KT 10SM CLR 18/05 A2991 RMK AO2 T01820047 10207 20148
KHRX 232335Z AUTO 00000KT 7SM CLR 20/00 A2990 RMK AO2 T01990002
KHRX 232315Z AUTO 25003KT 10SM CLR 20/02 A2991 RMK AO2 T02000016
KHRX 232255Z AUTO 25005KT 10SM CLR 21/00 A2991 RMK AO2 T02061003
KHRX 232235Z AUTO 26010G14KT 10SM CLR 21/00 A2992 RMK AO2 T02070000
KHRX 232215Z AUTO 25011KT 10SM CLR 21/00 A2993 RMK AO2 T02050001
KHRX 232155Z AUTO 26014KT 10SM CLR 20/00 A2993 RMK AO2 T02031003
KHRX 232135Z AUTO 28015G18KT 10SM CLR 20/00 A2994 RMK AO2 T02010002
KHRX 232115Z AUTO 26013G21KT 10SM CLR 20/00 A2994 RMK AO2 T02000002
KHRX 232055Z AUTO 29011KT 10SM CLR 20/00 A2995 RMK AO2 T01951005
KHRX 232035Z AUTO 27012KT 10SM CLR 19/00 A2995 RMK AO2 T01931003
KHRX 232010Z AUTO 27012G16KT 10SM CLR 19/M01 A2996 RMK AO2 T01851006
KHRX 231955Z AUTO 27010G14KT 10SM CLR 18/00 A2996 RMK AO2 T01830002
KHRX 231935Z AUTO 26008G14KT 10SM CLR 18/02 A2998 RMK AO2 T01800015
KHRX 231915Z AUTO 31004KT 10SM CLR 17/00 A2998 RMK AO2 T01680002
KHRX 231855Z AUTO 29009KT 7SM CLR 17/01 A2999 RMK AO2 T01660013
KHRX 231835Z AUTO 31007KT 7SM CLR 16/01 A2999 RMK AO2 T01610008
KHRX 231815Z AUTO 29008KT 7SM CLR 16/02 A3000 RMK AO2 T01560016
KHRX 231755Z AUTO 33005KT 7SM CLR 15/02 A3000 RMK AO2 T01460021 10146 20021
KHRX 231735Z AUTO 32005KT 7SM CLR 15/02 A3000 RMK AO2 T01450024
KHRX 231715Z AUTO 30006KT 7SM CLR 14/02 A3002 RMK AO2 T01400023
KHRX 231655Z AUTO 31007KT 7SM CLR 14/03 A3002 RMK AO2 T01350025
KHRX 231635Z AUTO 29007KT 7SM CLR 13/04 A3003 RMK AO2 LTG DSNT E T01270035
KHRX 231615Z AUTO 31008KT 7SM CLR 12/05 A3002 RMK AO2 LTG DSNT E T01170049
KHRX 231555Z AUTO 30008KT 7SM CLR 10/04 A3002 RMK AO2 LTG DSNT E T01040044
KHRX 231535Z AUTO 28008KT 7SM CLR 09/04 A3002 RMK AO2 T00920035
KHRX 231515Z AUTO 28008KT 7SM CLR 08/04 A3002 RMK AO2 T00830036
KHRX 231455Z AUTO 28010KT 10SM CLR 07/03 A3002 RMK AO2 LTG DSNT E T00730028
KHRX 231435Z AUTO 27007KT 10SM CLR 06/03 A3002 RMK AO2 T00590026
KHRX 231415Z AUTO 27008KT 10SM CLR 06/02 A3000 RMK AO2 T00550020
KHRX 231355Z AUTO 27008KT 10SM CLR 04/01 A3000 RMK AO2 T00360011
KHRX 231335Z AUTO 27008KT 10SM CLR 03/01 A3000 RMK AO2 T00280006
KHRX 231315Z AUTO 27008KT 10SM CLR 02/00 A3000 RMK AO2 T00240003
KHRX 231255Z AUTO 28008KT 10SM CLR 02/00 A2999 RMK AO2 T00230001
KHRX 231235Z AUTO 27009KT 10SM CLR 03/01 A2999 RMK AO2 T00260005
KHRX 231215Z AUTO 27009KT 10SM CLR 03/01 A2998 RMK AO2 T00320010
KHRX 231155Z AUTO 25009KT 10SM CLR 03/02 A2997 RMK AO2 7//// T00340019 10048 20020
KHRX 231135Z AUTO 27009KT 10SM CLR 02/02 A2997 RMK AO2 T00210015
KHRX 231115Z AUTO 27009KT 10SM CLR 02/02 A2997 RMK AO2 T00200015
KHRX 231055Z AUTO 28008KT 10SM CLR 02/02 A2996 RMK AO2 T00230018
KHRX 231035Z AUTO 27007KT 10SM CLR 02/02 A2996 RMK AO2 T00220019
KHRX 231015Z AUTO 27005KT 10SM CLR 02/02 A2995 RMK AO2 T00230018
KHRX 230955Z AUTO 27007KT 10SM CLR 03/02 A2995 RMK AO2 T00280024
KHRX 230935Z AUTO 26007KT 10SM CLR 02/02 A2995 RMK AO2 T00200016
KHRX 230915Z AUTO 28006KT 10SM CLR 03/02 A2995 RMK AO2 T00250020